• Join FlightAware (Why Join?)
  • Login
  • US Flag 
08:07AM EST


 

Airport Tracker/Info


-or-


 

Live Flight TrackerFlight Track Log ✈ N210PM ✈ 19-Sep-2013 ✈ KLAS - KMTJ

Flight Track Log - Related Links

Times and Time Zones

All times are in EDT time to prevent confusion due to time zone crossing. See the N210PM flight status page for this flight to view local times or setup timezone preferences in your user account.

Time Position Orientation Groundspeed Altitude Reporting Facility
EDT Latitude Longitude Course Direction KTS MPH feet Rate Location/Type
01:24PM 36.1097 -115.1439 79° East 170 196 3,200  Level Los Angeles Center
01:26PM 36.1214 -115.0689 79° East 180 207 5,700 2,040 Climbing Los Angeles Center
01:26PM 36.1328 -115.0511 52° Northeast 181 208 6,600 2,460 Climbing Los Angeles Center
01:27PM 36.1392 -114.9983 81° East 184 212 8,300 1,920 Climbing Los Angeles Center
01:27PM 36.1389 -114.9903 92° East 184 212 8,600 1,800 Climbing Los Angeles Center
01:28PM 36.1439 -114.9339 84° East 186 214 10,200 1,920 Climbing Los Angeles Center
01:28PM 36.1450 -114.9297 72° East 190 219 10,400 1,560 Climbing Los Angeles Center
01:29PM 36.1489 -114.8672 86° East 191 220 11,900 1,680 Climbing Los Angeles Center
01:29PM 36.1508 -114.8478 83° East 199 229 12,400 1,140 Climbing Los Angeles Center
01:30PM 36.1281 -114.8075 125° Southeast 211 243 13,100 360 Climbing Los Angeles Center
01:31PM 36.0658 -114.7636 150° Southeast 243 280 13,100  Level Los Angeles Center
01:32PM 36.0350 -114.6875 117° Southeast 265 305 13,100  Level Los Angeles Center
01:33PM 36.1081 -114.6244 35° Northeast 301 346 13,100 780 Level Los Angeles Center
01:34PM 36.1894 -114.6192 North 302 348 14,800 1,740 Climbing Los Angeles Center
01:35PM 36.2194 -114.5550 60° Northeast 255 293 16,800 1,560 Climbing Los Angeles Center
01:36PM 36.2128 -114.4764 96° East 233 268 18,100 1,200 Climbing Los Angeles Center
01:37PM 36.2056 -114.3925 96° East 241 277 19,300 1,140 Climbing Los Angeles Center
01:38PM 36.1989 -114.3056 95° East 249 287 20,500 1,200 Climbing Los Angeles Center
01:39PM 36.2061 -114.2008 85° East 264 304 21,900 1,200 Climbing Los Angeles Center
01:40PM 36.2336 -114.1172 68° East 266 306 23,100 1,080 Climbing Los Angeles Center
01:41PM 36.2606 -114.0322 69° East 267 307 24,200 1,080 Climbing Los Angeles Center
01:42PM 36.2900 -113.9464 67° East 268 308 25,400 1,080 Climbing Los Angeles Center
01:43PM 36.3189 -113.8586 68° East 272 313 26,500 900 Climbing Los Angeles Center
01:45PM 36.3481 -113.7681 68° East 280 322 27,500 1,020 Climbing Los Angeles Center
01:46PM 36.3894 -113.6408 68° East 283 326 28,800 1,020 Climbing Los Angeles Center
01:47PM 36.4197 -113.5492 68° East 286 329 29,700 780 Climbing Los Angeles Center
01:48PM 36.4500 -113.4556 68° East 290 334 30,500 780 Climbing Los Angeles Center
01:49PM 36.4811 -113.3600 68° East 297 342 31,400 720 Climbing Los Angeles Center
01:50PM 36.5125 -113.2625 68° East 301 346 32,100 720 Climbing Los Angeles Center
01:51PM 36.5439 -113.1656 68° East 302 348 33,000 420 Climbing Los Angeles Center
01:52PM 36.5822 -113.0447 68° East 310 357 33,000  Level Los Angeles Center
01:53PM 36.6183 -112.9350 68° East 332 382 33,000  Level Los Angeles Center
01:54PM 36.6433 -112.8553 69° East 344 396 33,000  Level Los Angeles Center
01:55PM 36.6939 -112.6964 68° East 353 406 33,000  Level Los Angeles Center
01:56PM 36.7303 -112.5833 68° East 354 407 33,000  Level Los Angeles Center
01:57PM 36.7650 -112.4700 69° East 353 406 33,000  Level Los Angeles Center
01:58PM 36.8008 -112.3569 68° East 352 405 33,000  Level Los Angeles Center
01:59PM 36.8361 -112.2436 69° East 352 405 33,000  Level Los Angeles Center
02:00PM 36.8708 -112.1308 69° East 351 404 33,000  Level Los Angeles Center
02:01PM 36.9125 -111.9958 69° East 350 403 33,000  Level Los Angeles Center
02:02PM 36.9467 -111.8814 69° East 352 405 33,000  Level Los Angeles Center
02:03PM 36.9828 -111.7678 68° East 353 406 33,000  Level Los Angeles Center
02:04PM 37.0175 -111.6531 69° East 354 407 33,000  Level Los Angeles Center
02:05PM 37.0442 -111.5667 69° East 354 407 33,000  Level Denver Center
02:06PM 37.0772 -111.4553 70° East 355 409 33,000  Level Denver Center
02:07PM 37.1064 -111.3622 69° East 356 410 33,000  Level Denver Center
02:08PM 37.1508 -111.2158 69° East 353 406 33,000  Level Denver Center
02:09PM 37.1847 -111.1033 69° East 358 412 33,000  Level Denver Center
02:10PM 37.2236 -110.9714 70° East 357 411 33,000  Level Denver Center
02:11PM 37.2561 -110.8600 70° East 356 410 33,000  Level Denver Center
02:12PM 37.3017 -110.7100 69° East 360 414 33,000  Level Denver Center
02:13PM 37.3339 -110.5975 70° East 358 412 33,000  Level Denver Center
02:14PM 37.3725 -110.4647 70° East 361 415 33,000  Level Denver Center
02:15PM 37.4064 -110.3506 69° East 363 418 33,000  Level Denver Center
02:16PM 37.4442 -110.2175 70° East 363 418 33,000  Level Denver Center
02:17PM 37.4792 -110.1028 69° East 365 420 33,000  Level Denver Center
02:18PM 37.5169 -109.9683 70° East 365 420 33,000 -480 Level Denver Center
02:19PM 37.5511 -109.8489 70° East 367 422 32,100 -1,020 Descending Denver Center
02:21PM 37.5917 -109.7053 70° East 380 437 30,900 -1,020 Descending Denver Center
02:22PM 37.6286 -109.5781 70° East 392 451 30,000 -1,020 Descending Denver Center
02:23PM 37.6681 -109.4358 71° East 389 448 28,900 -1,020 Descending Denver Center
02:24PM 37.7019 -109.3169 70° East 380 437 27,900 -960 Descending Denver Center
02:25PM 37.7417 -109.1761 70° East 380 437 27,000 -480 Descending Denver Center
02:26PM 37.7750 -109.0556 71° East 381 438 27,000  Level Denver Center
02:27PM 37.8161 -108.9217 69° East 373 429 27,000  Level Denver Center
02:28PM 37.8800 -108.8311 48° Northeast 361 415 27,000 -1,020 Level Denver Center
02:29PM 37.9644 -108.7047 50° Northeast 365 420 24,700 -2,160 Descending Denver Center
02:30PM 38.0272 -108.6100 50° Northeast 366 421 22,600 -2,220 Descending Denver Center
02:31PM 38.0958 -108.5081 49° Northeast 356 410 20,200 -2,220 Descending Denver Center
02:32PM 38.1550 -108.4211 49° Northeast 341 392 18,000 -2,040 Descending Denver Center
02:33PM 38.2139 -108.3356 49° Northeast 328 377 16,000 -2,280 Descending Denver Center
02:34PM 38.2819 -108.2322 50° Northeast 320 368 13,400 -2,520 Descending Denver Center
02:36PM 38.3477 -108.1202 50° Northeast  Level FlightAware Approximate
02:43PM 38.5000 -107.8833 51° Northeast  Level FlightAware Approximate
02:44PM 38.5098 -107.8942 51° Northeast  Level Estimated
02:45PM 38.5098 -107.8942 51° Northeast  Level Estimated
02:46PM 38.5098 -107.8942 51° Northeast  Level Estimated
02:47PM 38.5098 -107.8942 51° Northeast  Level Estimated
02:48PM 38.5098 -107.8942 51° Northeast  Level Estimated
02:49PM 38.5098 -107.8942 51° Northeast  Level Estimated
02:50PM 38.5098 -107.8942 51° Northeast  Level Estimated
02:51PM 38.5098 -107.8942 51° Northeast  Level Estimated
02:52PM 38.5098 -107.8942 51° Northeast  Level Estimated
02:53PM 38.5098 -107.8942 51° Northeast  Level Estimated
02:54PM 38.5098 -107.8942 51° Northeast  Level Estimated
02:55PM 38.5098 -107.8942 51° Northeast  Level Estimated
02:56PM 38.5098 -107.8942 51° Northeast  Level Estimated